Time;durP1;ratioP1;P1;durP2;ratioP2;P2;SDS_P1;SDS_P2;PMS_P1;PMS_P2;Temp;Humidity;BMP_temperature;BMP_pressure;BME280_temperature;BME280_humidity;BME280_pressure;Samples;Min_cycle;Max_cycle;Signal;HPM_P1;HPM_P2
2022/09/01 00:00:59;;;;;;;;;12.75;11.75;;;;;;;;5018741;28;62932;-75
2022/09/01 00:03:25;;;;;;;;;15.50;13.50;;;;;;;;5022029;28;61802;-75
2022/09/01 00:05:53;;;;;;;;;11.50;9.50;;;;;;;;5024251;28;61859;-75
2022/09/01 00:08:19;;;;;;;;;14.00;9.75;;;;;;;;5022714;28;62046;-75
2022/09/01 00:10:45;;;;;;;;;9.25;9.25;;;;;;;;5023336;28;61958;-75
2022/09/01 00:13:10;;;;;;;;;12.75;11.75;;;;;;;;5022449;28;61958;-75
2022/09/01 00:15:35;;;;;;;;;17.50;13.75;;;;;;;;5022164;28;61742;-75
2022/09/01 00:18:01;;;;;;;;;16.25;10.00;;;;;;;;5023793;28;61859;-75
2022/09/01 00:20:27;;;;;;;;;14.25;9.25;;;;;;;;5022990;28;61790;-75
2022/09/01 00:22:52;;;;;;;;;14.25;10.25;;;;;;;;5023823;28;62291;-75
2022/09/01 00:25:18;;;;;;;;;12.00;10.00;;;;;;;;5021808;28;61841;-76
2022/09/01 00:27:44;;;;;;;;;8.75;7.75;;;;;;;;5024057;28;61796;-75
2022/09/01 00:30:10;;;;;;;;;12.00;10.25;;;;;;;;5023110;28;62218;-75
2022/09/01 00:32:35;;;;;;;;;11.50;10.50;;;;;;;;5031271;28;62570;-75
2022/09/01 00:35:00;;;;;;;;;9.75;9.75;;;;;;;;5021987;28;61771;-76
2022/09/01 00:37:26;;;;;;;;;14.00;12.50;;;;;;;;5022790;28;62136;-75
2022/09/01 00:39:51;;;;;;;;;14.75;13.00;;;;;;;;5021405;28;64662;-76
2022/09/01 00:42:17;;;;;;;;;13.75;12.50;;;;;;;;5023193;28;61723;-76
2022/09/01 00:44:42;;;;;;;;;11.00;10.00;;;;;;;;5021931;28;61775;-75
2022/09/01 00:47:07;;;;;;;;;11.25;10.00;;;;;;;;5023829;28;61704;-75
2022/09/01 00:49:44;;;;;;;;;12.50;8.50;;;;;;;;5022248;28;61887;-76
2022/09/01 00:52:12;;;;;;;;;12.25;10.50;;;;;;;;5023201;28;61950;-76
2022/09/01 00:54:40;;;;;;;;;14.25;11.50;;;;;;;;5022350;28;61971;-75
2022/09/01 00:57:07;;;;;;;;;13.00;11.75;;;;;;;;5023633;28;62137;-75
2022/09/01 00:59:34;;;;;;;;;12.50;10.25;;;;;;;;5020934;28;63833;-76
2022/09/01 01:02:00;;;;;;;;;11.75;11.25;;;;;;;;5022926;28;61717;-76
2022/09/01 01:04:25;;;;;;;;;12.50;10.00;;;;;;;;5021047;28;61949;-75
2022/09/01 01:06:57;;;;;;;;;11.25;8.75;;;;;;;;5022052;28;61855;-75
2022/09/01 01:09:23;;;;;;;;;12.00;9.75;;;;;;;;5022213;28;62931;-75
2022/09/01 01:11:49;;;;;;;;;13.75;11.25;;;;;;;;5021742;28;62566;-75
2022/09/01 01:14:16;;;;;;;;;11.25;7.75;;;;;;;;5022954;28;61861;-75
2022/09/01 01:16:47;;;;;;;;;10.75;9.50;;;;;;;;5021495;28;62084;-75
2022/09/01 01:23:00;;;;;;;;;13.75;12.00;;;;;;;;5020851;28;65032;-75
2022/09/01 01:24:49;;;;;;;;;15.00;12.00;;;;;;;;5022285;28;62019;-75
2022/09/01 01:27:18;;;;;;;;;13.75;10.75;;;;;;;;5007706;28;61965;-75
2022/09/01 01:29:44;;;;;;;;;12.50;10.75;;;;;;;;5002136;28;61752;-75
2022/09/01 01:32:11;;;;;;;;;10.50;8.00;;;;;;;;5010220;28;61858;-75
2022/09/01 01:34:38;;;;;;;;;13.25;11.75;;;;;;;;5020576;28;61825;-75
2022/09/01 01:37:03;;;;;;;;;15.00;11.75;;;;;;;;5022988;28;61800;-75
2022/09/01 01:39:28;;;;;;;;;12.00;11.00;;;;;;;;5021720;28;61887;-75
2022/09/01 01:41:54;;;;;;;;;14.00;10.50;;;;;;;;5022522;28;61924;-76
2022/09/01 01:44:22;;;;;;;;;14.50;10.00;;;;;;;;5021542;28;61957;-75
2022/09/01 01:46:49;;;;;;;;;11.50;11.25;;;;;;;;5022305;28;61644;-75
2022/09/01 01:49:18;;;;;;;;;11.25;9.50;;;;;;;;5021502;28;61878;-75
2022/09/01 01:51:44;;;;;;;;;11.75;11.75;;;;;;;;5021934;28;61806;-75
2022/09/01 01:54:09;;;;;;;;;13.25;10.25;;;;;;;;5021922;28;62009;-75
2022/09/01 01:56:37;;;;;;;;;8.50;7.25;;;;;;;;5022335;28;61723;-75
2022/09/01 01:59:03;;;;;;;;;10.75;10.75;;;;;;;;5021825;28;62980;-75
2022/09/01 02:01:30;;;;;;;;;11.50;9.75;;;;;;;;5020865;28;61918;-75
2022/09/01 02:03:58;;;;;;;;;9.00;8.00;;;;;;;;5021787;28;61888;-75
2022/09/01 02:06:24;;;;;;;;;10.75;9.75;;;;;;;;5020973;28;61894;-75
2022/09/01 02:08:55;;;;;;;;;11.25;7.75;;;;;;;;5019945;28;64971;-75
2022/09/01 02:11:21;;;;;;;;;8.50;8.50;;;;;;;;5020770;28;61830;-75
2022/09/01 02:13:47;;;;;;;;;12.00;9.50;;;;;;;;5021966;28;61852;-76
2022/09/01 02:16:12;;;;;;;;;14.00;10.25;;;;;;;;5022256;28;62722;-75
2022/09/01 02:18:41;;;;;;;;;8.00;7.25;;;;;;;;5019959;28;64946;-75
2022/09/01 02:21:08;;;;;;;;;11.00;9.50;;;;;;;;5022358;28;61701;-76
2022/09/01 02:23:34;;;;;;;;;12.25;11.00;;;;;;;;5021511;28;61937;-75
2022/09/01 02:26:01;;;;;;;;;12.75;10.25;;;;;;;;5021924;28;61703;-75
2022/09/01 02:28:27;;;;;;;;;11.00;9.50;;;;;;;;5020281;28;63793;-75
2022/09/01 02:30:56;;;;;;;;;12.75;9.50;;;;;;;;5020251;28;61971;-75
2022/09/01 02:33:22;;;;;;;;;8.75;8.25;;;;;;;;5021380;28;61788;-75
2022/09/01 02:35:49;;;;;;;;;8.25;8.25;;;;;;;;5021172;28;62081;-76
2022/09/01 02:38:16;;;;;;;;;10.50;9.25;;;;;;;;5021479;28;62004;-76
2022/09/01 02:40:44;;;;;;;;;8.00;6.00;;;;;;;;5020262;28;61771;-75
2022/09/01 02:43:10;;;;;;;;;12.50;10.00;;;;;;;;5020181;28;61868;-75
2022/09/01 02:45:36;;;;;;;;;6.50;6.50;;;;;;;;5020442;28;62117;-75
2022/09/01 02:48:01;;;;;;;;;8.00;8.00;;;;;;;;5020779;28;62946;-75
2022/09/01 02:50:28;;;;;;;;;8.00;7.75;;;;;;;;5019758;28;61918;-76
2022/09/01 02:52:53;;;;;;;;;9.25;8.75;;;;;;;;5019940;28;61744;-76
2022/09/01 02:55:22;;;;;;;;;10.00;8.00;;;;;;;;5019989;28;61916;-75
2022/09/01 02:57:48;;;;;;;;;9.75;7.50;;;;;;;;5021055;28;62936;-75
2022/09/01 03:03:11;;;;;;;;;13.00;7.75;;;;;;;;5028535;28;61829;-75
2022/09/01 03:05:38;;;;;;;;;9.00;8.25;;;;;;;;5024834;28;61887;-75
2022/09/01 03:08:09;;;;;;;;;7.00;7.00;;;;;;;;5022934;28;64175;-75
2022/09/01 03:10:36;;;;;;;;;11.75;9.25;;;;;;;;5025016;28;61983;-75
2022/09/01 03:13:03;;;;;;;;;6.50;6.50;;;;;;;;5024825;28;62204;-75
2022/09/01 03:15:28;;;;;;;;;7.75;6.00;;;;;;;;5023650;28;61732;-75
2022/09/01 03:17:54;;;;;;;;;9.50;9.00;;;;;;;;5024095;28;61934;-75
2022/09/01 03:20:20;;;;;;;;;8.50;8.00;;;;;;;;5024462;28;61875;-75
2022/09/01 03:22:46;;;;;;;;;11.75;8.00;;;;;;;;5023646;28;61971;-75
2022/09/01 03:25:12;;;;;;;;;12.25;9.00;;;;;;;;5023219;28;62086;-75
2022/09/01 03:27:37;;;;;;;;;8.75;7.75;;;;;;;;5024081;28;61934;-75
2022/09/01 03:30:03;;;;;;;;;7.25;7.25;;;;;;;;5023010;28;61949;-75
2022/09/01 03:32:28;;;;;;;;;12.50;8.75;;;;;;;;5024876;28;61980;-76
2022/09/01 03:34:54;;;;;;;;;12.00;9.00;;;;;;;;5023877;28;62089;-75
2022/09/01 03:37:19;;;;;;;;;10.25;9.00;;;;;;;;5023937;28;63120;-75
2022/09/01 03:39:45;;;;;;;;;8.75;7.50;;;;;;;;5023355;28;61965;-75
2022/09/01 03:42:11;;;;;;;;;10.00;9.75;;;;;;;;5024432;28;61686;-76
2022/09/01 03:44:39;;;;;;;;;12.25;7.75;;;;;;;;5024738;28;61922;-75
2022/09/01 03:47:09;;;;;;;;;11.25;10.25;;;;;;;;5021918;28;63686;-76
2022/09/01 03:49:35;;;;;;;;;12.00;11.00;;;;;;;;5022240;28;61717;-75
2022/09/01 03:52:01;;;;;;;;;14.50;11.25;;;;;;;;5024014;28;61969;-75
2022/09/01 03:54:29;;;;;;;;;13.25;11.75;;;;;;;;5022802;28;62026;-75
2022/09/01 03:56:56;;;;;;;;;12.75;8.75;;;;;;;;5022266;28;64116;-75
2022/09/01 03:59:21;;;;;;;;;9.75;8.75;;;;;;;;5023948;28;61791;-75
2022/09/01 04:01:46;;;;;;;;;13.00;10.00;;;;;;;;5024260;28;61912;-75
2022/09/01 04:04:15;;;;;;;;;12.50;10.50;;;;;;;;5022252;28;61798;-75
2022/09/01 04:06:41;;;;;;;;;7.50;6.50;;;;;;;;5023480;28;62700;-75
2022/09/01 04:09:06;;;;;;;;;9.00;8.75;;;;;;;;5022548;28;61844;-75
2022/09/01 04:11:32;;;;;;;;;8.00;8.00;;;;;;;;5023916;28;61670;-75
2022/09/01 04:13:58;;;;;;;;;12.75;8.25;;;;;;;;5022879;28;61923;-76
2022/09/01 04:19:18;;;;;;;;;10.50;8.00;;;;;;;;5023402;28;62064;-75
2022/09/01 04:21:49;;;;;;;;;10.50;8.75;;;;;;;;5024049;28;61739;-75
2022/09/01 04:24:14;;;;;;;;;13.50;8.50;;;;;;;;5022132;28;61785;-75
2022/09/01 04:26:40;;;;;;;;;8.25;7.00;;;;;;;;5013849;28;62000;-75
2022/09/01 04:29:08;;;;;;;;;9.50;7.25;;;;;;;;5002685;28;61842;-75
2022/09/01 04:31:36;;;;;;;;;8.25;6.75;;;;;;;;5007444;28;62012;-75
2022/09/01 04:34:02;;;;;;;;;12.00;8.00;;;;;;;;5021857;28;61939;-75
2022/09/01 04:36:29;;;;;;;;;8.00;7.00;;;;;;;;5022838;28;62469;-75
2022/09/01 04:38:59;;;;;;;;;9.75;7.25;;;;;;;;5022308;28;62007;-75
2022/09/01 04:41:29;;;;;;;;;11.25;7.25;;;;;;;;5023323;28;61890;-75
2022/09/01 04:44:00;;;;;;;;;7.00;7.00;;;;;;;;5023606;28;61787;-75
2022/09/01 04:46:28;;;;;;;;;9.25;7.50;;;;;;;;5022446;28;61869;-76
2022/09/01 04:48:54;;;;;;;;;8.00;8.00;;;;;;;;5023179;28;61862;-75
2022/09/01 04:51:20;;;;;;;;;9.00;9.00;;;;;;;;5021543;28;61842;-75
2022/09/01 04:53:47;;;;;;;;;11.25;8.75;;;;;;;;5023306;28;61821;-75
2022/09/01 04:56:21;;;;;;;;;14.00;8.00;;;;;;;;5021063;28;64038;-75
2022/09/01 04:58:48;;;;;;;;;11.00;7.00;;;;;;;;5023338;28;61838;-75
2022/09/01 05:01:18;;;;;;;;;8.75;8.00;;;;;;;;5022627;28;61847;-75
2022/09/01 05:03:44;;;;;;;;;9.50;8.50;;;;;;;;5023134;28;61887;-77
2022/09/01 05:06:13;;;;;;;;;7.50;7.00;;;;;;;;5019559;28;63790;-76
2022/09/01 05:08:39;;;;;;;;;8.00;8.00;;;;;;;;5022954;28;61728;-76
2022/09/01 05:11:06;;;;;;;;;12.50;8.00;;;;;;;;5021950;28;62093;-76
2022/09/01 05:13:31;;;;;;;;;4.50;3.50;;;;;;;;5023138;28;61831;-75
2022/09/01 05:16:02;;;;;;;;;8.50;7.00;;;;;;;;5020366;28;63917;-76
2022/09/01 05:18:27;;;;;;;;;8.50;8.50;;;;;;;;5021781;28;61721;-75
2022/09/01 05:20:53;;;;;;;;;8.50;7.25;;;;;;;;5038140;28;61832;-75
2022/09/01 05:23:19;;;;;;;;;8.25;6.25;;;;;;;;5020884;28;61863;-76
2022/09/01 05:25:47;;;;;;;;;8.75;7.75;;;;;;;;5022083;28;61944;-75
2022/09/01 05:28:13;;;;;;;;;9.25;9.00;;;;;;;;5022864;28;61930;-75
2022/09/01 05:30:40;;;;;;;;;7.50;6.75;;;;;;;;5020835;28;61933;-76
2022/09/01 05:33:10;;;;;;;;;9.50;6.25;;;;;;;;5022983;28;62252;-76
2022/09/01 05:35:42;;;;;;;;;9.75;8.25;;;;;;;;5019590;28;62773;-84
2022/09/01 05:38:11;;;;;;;;;7.75;6.50;;;;;;;;5018434;28;62901;-84
2022/09/01 05:40:39;;;;;;;;;9.25;7.00;;;;;;;;5021754;28;62079;-84
2022/09/01 05:43:05;;;;;;;;;7.25;7.25;;;;;;;;5018352;28;61752;-84
2022/09/01 05:45:30;;;;;;;;;9.00;7.25;;;;;;;;5019370;28;64754;-84
2022/09/01 05:47:57;;;;;;;;;8.00;8.00;;;;;;;;5020572;28;61849;-80
2022/09/01 05:50:22;;;;;;;;;10.00;7.50;;;;;;;;5020924;28;62159;-79
2022/09/01 05:52:47;;;;;;;;;7.00;7.00;;;;;;;;5020161;28;61987;-81
2022/09/01 05:55:14;;;;;;;;;7.00;7.00;;;;;;;;5019432;28;63634;-83
2022/09/01 05:57:39;;;;;;;;;9.25;7.75;;;;;;;;5029174;28;61865;-81
2022/09/01 06:00:11;;;;;;;;;8.25;7.25;;;;;;;;5019960;28;62506;-81
2022/09/01 06:02:36;;;;;;;;;9.75;6.50;;;;;;;;5019157;28;61829;-81
2022/09/01 06:05:02;;;;;;;;;7.75;6.00;;;;;;;;5018877;28;64944;-81
2022/09/01 06:07:27;;;;;;;;;9.75;7.25;;;;;;;;5020806;28;61836;-80
2022/09/01 06:09:52;;;;;;;;;10.00;8.50;;;;;;;;5022236;28;62329;-80
2022/09/01 06:12:20;;;;;;;;;9.75;6.75;;;;;;;;5021100;28;62136;-79
2022/09/01 06:14:47;;;;;;;;;12.00;8.75;;;;;;;;5019698;28;65041;-79
2022/09/01 06:17:15;;;;;;;;;7.50;7.50;;;;;;;;5020401;28;62275;-79
2022/09/01 06:19:41;;;;;;;;;6.75;6.75;;;;;;;;5020140;28;61942;-79
2022/09/01 06:22:09;;;;;;;;;7.75;6.50;;;;;;;;5021945;28;61933;-79
2022/09/01 06:24:35;;;;;;;;;12.25;9.00;;;;;;;;5020737;28;62102;-79
2022/09/01 06:27:00;;;;;;;;;11.00;8.25;;;;;;;;5018025;28;62146;-81
2022/09/01 06:29:26;;;;;;;;;10.50;8.00;;;;;;;;5016880;28;61777;-79
2022/09/01 06:31:51;;;;;;;;;9.00;9.00;;;;;;;;5013015;28;62278;-76
2022/09/01 06:34:17;;;;;;;;;8.25;8.25;;;;;;;;5018252;28;63601;-76
2022/09/01 06:36:42;;;;;;;;;10.75;8.00;;;;;;;;5021897;28;61901;-76
2022/09/01 06:39:13;;;;;;;;;9.00;7.50;;;;;;;;5022858;28;62016;-76
2022/09/01 06:41:38;;;;;;;;;8.00;7.00;;;;;;;;5023362;28;62110;-75
2022/09/01 06:44:03;;;;;;;;;11.50;7.75;;;;;;;;5023246;28;61909;-77
2022/09/01 06:46:30;;;;;;;;;11.25;9.25;;;;;;;;5022747;28;61778;-77
2022/09/01 06:48:57;;;;;;;;;11.50;7.75;;;;;;;;5021349;28;61716;-79
2022/09/01 06:51:23;;;;;;;;;10.25;9.25;;;;;;;;5022218;28;62265;-78
2022/09/01 06:53:51;;;;;;;;;8.75;8.75;;;;;;;;5023092;28;62823;-76
2022/09/01 06:56:17;;;;;;;;;7.50;7.25;;;;;;;;5021484;28;62041;-75
2022/09/01 06:58:47;;;;;;;;;7.67;6.33;;;;;;;;5022467;28;61778;-75
2022/09/01 07:01:16;;;;;;;;;7.25;7.00;;;;;;;;5023006;28;61818;-75
2022/09/01 07:03:43;;;;;;;;;8.50;7.25;;;;;;;;5021802;28;64104;-75
2022/09/01 07:06:09;;;;;;;;;12.50;9.75;;;;;;;;5024274;28;61781;-75
2022/09/01 07:08:38;;;;;;;;;13.00;9.75;;;;;;;;5024232;28;61926;-75
2022/09/01 07:11:05;;;;;;;;;7.75;7.25;;;;;;;;5023295;28;61977;-75
2022/09/01 07:13:32;;;;;;;;;9.50;8.25;;;;;;;;5023867;28;62057;-75
2022/09/01 07:15:58;;;;;;;;;13.50;8.00;;;;;;;;5020435;28;62095;-75
2022/09/01 07:18:29;;;;;;;;;9.33;8.67;;;;;;;;5023431;28;61758;-75
2022/09/01 07:20:59;;;;;;;;;9.75;7.75;;;;;;;;5019968;28;62052;-75
2022/09/01 07:23:26;;;;;;;;;8.00;8.00;;;;;;;;5021243;28;61825;-75
2022/09/01 07:25:54;;;;;;;;;7.00;7.00;;;;;;;;5021327;28;62000;-75
2022/09/01 07:28:20;;;;;;;;;10.00;8.67;;;;;;;;5021953;28;61846;-75
2022/09/01 07:30:47;;;;;;;;;8.50;8.00;;;;;;;;5022315;28;61843;-75
2022/09/01 07:33:19;;;;;;;;;11.00;10.00;;;;;;;;5052115;28;63299;-75
2022/09/01 07:35:45;;;;;;;;;11.50;9.25;;;;;;;;5021330;28;61960;-75
2022/09/01 07:38:10;;;;;;;;;8.00;8.00;;;;;;;;5021622;28;62101;-75
2022/09/01 07:40:37;;;;;;;;;12.00;9.50;;;;;;;;5021584;28;62174;-75
2022/09/01 07:43:07;;;;;;;;;8.00;7.67;;;;;;;;5021297;28;64610;-75
2022/09/01 07:45:34;;;;;;;;;7.25;7.25;;;;;;;;5021694;28;61849;-75
2022/09/01 07:48:02;;;;;;;;;9.00;7.00;;;;;;;;5021605;28;63135;-75
2022/09/01 07:50:29;;;;;;;;;9.33;7.67;;;;;;;;5021386;28;62220;-76
2022/09/01 07:52:54;;;;;;;;;10.33;7.67;;;;;;;;5019608;28;64175;-76
2022/09/01 07:55:19;;;;;;;;;8.25;8.00;;;;;;;;5022295;28;61782;-75
2022/09/01 07:57:45;;;;;;;;;7.00;7.00;;;;;;;;5021654;28;61872;-75
2022/09/01 08:00:11;;;;;;;;;7.67;7.67;;;;;;;;5021355;28;61775;-75
2022/09/01 08:02:39;;;;;;;;;9.00;9.00;;;;;;;;5021220;28;65093;-75
2022/09/01 08:05:08;;;;;;;;;8.00;7.67;;;;;;;;5021559;28;62097;-75
2022/09/01 08:07:36;;;;;;;;;10.00;8.67;;;;;;;;5023186;28;62033;-75
2022/09/01 08:10:06;;;;;;;;;13.25;11.00;;;;;;;;5021504;28;62146;-75
2022/09/01 08:12:31;;;;;;;;;7.75;7.00;;;;;;;;5021227;28;65120;-75
2022/09/01 08:14:56;;;;;;;;;11.25;9.75;;;;;;;;5022993;28;61923;-75
2022/09/01 08:17:22;;;;;;;;;9.33;6.67;;;;;;;;5023086;28;61745;-75
2022/09/01 08:19:47;;;;;;;;;6.75;6.75;;;;;;;;5021648;28;62043;-75
2022/09/01 08:22:13;;;;;;;;;13.00;10.00;;;;;;;;5020357;28;63751;-75
2022/09/01 08:24:39;;;;;;;;;13.00;8.33;;;;;;;;5021234;28;61965;-75
2022/09/01 08:27:04;;;;;;;;;8.00;8.00;;;;;;;;5021396;28;61733;-75
2022/09/01 08:29:30;;;;;;;;;9.25;8.50;;;;;;;;5022637;28;62420;-75
2022/09/01 08:31:57;;;;;;;;;10.00;8.67;;;;;;;;5020746;28;64399;-75
2022/09/01 08:34:23;;;;;;;;;13.00;9.33;;;;;;;;5022267;28;61814;-75
2022/09/01 08:36:48;;;;;;;;;8.00;6.67;;;;;;;;5020993;28;62088;-75
2022/09/01 08:39:13;;;;;;;;;9.33;7.33;;;;;;;;5021264;28;61825;-75
2022/09/01 08:41:45;;;;;;;;;8.67;5.33;;;;;;;;5020898;28;63790;-75
2022/09/01 08:44:29;;;;;;;;;15.67;9.00;;;;;;;;5021070;28;61746;-75
2022/09/01 08:46:59;;;;;;;;;7.00;7.00;;;;;;;;5022239;28;61890;-75
2022/09/01 08:49:24;;;;;;;;;12.67;9.00;;;;;;;;5021784;28;61845;-75
2022/09/01 08:51:57;;;;;;;;;8.67;8.33;;;;;;;;5021529;28;63940;-75
2022/09/01 08:54:26;;;;;;;;;12.00;7.00;;;;;;;;5021463;28;61989;-75
2022/09/01 08:56:53;;;;;;;;;9.33;9.00;;;;;;;;5023277;28;61996;-75
2022/09/01 08:59:19;;;;;;;;;9.67;9.00;;;;;;;;5022326;28;61852;-76
2022/09/01 09:01:44;;;;;;;;;8.33;7.67;;;;;;;;5021350;28;64690;-75
2022/09/01 09:04:16;;;;;;;;;9.67;9.00;;;;;;;;5022258;28;61764;-75
2022/09/01 09:06:47;;;;;;;;;10.67;10.67;;;;;;;;5022091;28;61827;-75
2022/09/01 09:09:13;;;;;;;;;10.00;9.33;;;;;;;;5022972;28;61894;-75
2022/09/01 09:11:38;;;;;;;;;10.67;7.67;;;;;;;;5020542;28;63736;-75
2022/09/01 09:14:03;;;;;;;;;7.33;7.33;;;;;;;;5021808;28;61868;-75
2022/09/01 09:16:34;;;;;;;;;7.00;7.00;;;;;;;;5022746;28;61877;-75
2022/09/01 09:19:06;;;;;;;;;9.00;6.67;;;;;;;;5021688;28;61726;-75
2022/09/01 09:21:34;;;;;;;;;9.33;8.00;;;;;;;;5020939;28;63724;-75
2022/09/01 09:24:05;;;;;;;;;7.67;7.67;;;;;;;;5022204;28;61727;-75
2022/09/01 09:26:31;;;;;;;;;7.67;7.67;;;;;;;;5021395;28;61852;-75
2022/09/01 09:28:56;;;;;;;;;13.33;7.33;;;;;;;;5023133;28;61832;-75
2022/09/01 09:31:27;;;;;;;;;11.00;10.00;;;;;;;;5020359;28;63680;-75
2022/09/01 09:33:53;;;;;;;;;9.67;8.33;;;;;;;;5022624;28;61746;-75
2022/09/01 09:36:20;;;;;;;;;11.67;9.33;;;;;;;;5021249;28;61808;-76
2022/09/01 09:38:46;;;;;;;;;11.67;10.33;;;;;;;;5021572;28;61842;-76
2022/09/01 09:41:14;;;;;;;;;9.33;9.00;;;;;;;;5022045;28;61819;-75
2022/09/01 09:43:57;;;;;;;;;10.00;9.00;;;;;;;;5021300;28;61747;-75
2022/09/01 09:46:25;;;;;;;;;8.33;7.33;;;;;;;;5022323;28;61782;-76
2022/09/01 09:49:09;;;;;;;;;9.00;9.00;;;;;;;;5020958;28;62218;-75
2022/09/01 09:51:35;;;;;;;;;7.67;7.67;;;;;;;;5021057;28;61976;-75
2022/09/01 09:54:14;;;;;;;;;8.33;8.33;;;;;;;;5020258;28;62308;-75
2022/09/01 09:56:46;;;;;;;;;8.67;8.67;;;;;;;;5021988;28;61998;-76
2022/09/01 09:59:37;;;;;;;;;8.33;8.33;;;;;;;;5022499;28;61881;-75
2022/09/01 10:02:21;;;;;;;;;10.00;7.67;;;;;;;;5020060;28;61752;-75
2022/09/01 10:04:46;;;;;;;;;9.67;7.33;;;;;;;;5020410;28;62091;-76
2022/09/01 10:07:26;;;;;;;;;11.67;9.67;;;;;;;;5020618;28;62196;-76
2022/09/01 10:09:52;;;;;;;;;8.33;8.33;;;;;;;;5022573;28;61779;-75
2022/09/01 10:12:18;;;;;;;;;9.00;9.00;;;;;;;;5021699;28;62990;-75
2022/09/01 10:15:19;;;;;;;;;12.33;10.33;;;;;;;;5019793;28;62341;-75
2022/09/01 10:17:45;;;;;;;;;12.67;9.00;;;;;;;;5019509;28;61834;-75
2022/09/01 10:20:19;;;;;;;;;5.67;5.67;;;;;;;;5002578;28;61915;-76
2022/09/01 10:22:45;;;;;;;;;8.67;7.00;;;;;;;;5020975;28;62173;-76
2022/09/01 10:25:15;;;;;;;;;11.00;9.00;;;;;;;;5019620;28;62009;-76
2022/09/01 10:27:42;;;;;;;;;13.00;10.67;;;;;;;;5002707;28;61785;-76
2022/09/01 10:30:15;;;;;;;;;9.00;9.00;;;;;;;;5016894;28;61808;-75
2022/09/01 10:32:48;;;;;;;;;18.33;13.33;;;;;;;;5018278;28;64777;-76
2022/09/01 10:35:22;;;;;;;;;8.67;7.67;;;;;;;;5018789;28;62146;-76
2022/09/01 10:37:48;;;;;;;;;8.67;7.67;;;;;;;;5019109;28;61929;-75
2022/09/01 10:40:15;;;;;;;;;13.00;10.00;;;;;;;;5019547;28;61953;-75
2022/09/01 10:42:42;;;;;;;;;8.67;8.67;;;;;;;;5018464;28;61943;-75
2022/09/01 10:45:21;;;;;;;;;10.00;8.00;;;;;;;;5035722;28;61795;-78
2022/09/01 10:47:47;;;;;;;;;10.00;8.00;;;;;;;;5018572;28;62135;-76
2022/09/01 10:50:24;;;;;;;;;6.67;6.00;;;;;;;;5018590;28;62641;-77
2022/09/01 10:52:53;;;;;;;;;9.00;8.00;;;;;;;;5020068;28;61957;-76
2022/09/01 10:55:18;;;;;;;;;8.00;7.00;;;;;;;;5020771;28;61833;-77
2022/09/01 10:57:56;;;;;;;;;10.33;7.67;;;;;;;;5019442;28;61958;-76
2022/09/01 11:00:21;;;;;;;;;8.67;8.67;;;;;;;;5021814;28;61787;-77
2022/09/01 11:03:05;;;;;;;;;7.67;6.67;;;;;;;;5018956;28;63730;-73
2022/09/01 11:05:49;;;;;;;;;7.67;7.00;;;;;;;;5019363;28;61818;-74
2022/09/01 11:08:27;;;;;;;;;8.33;7.00;;;;;;;;5019801;28;61881;-75
2022/09/01 11:10:57;;;;;;;;;9.33;7.33;;;;;;;;5019384;28;62305;-74
2022/09/01 11:13:35;;;;;;;;;9.00;7.00;;;;;;;;5019150;28;63823;-74
2022/09/01 11:16:36;;;;;;;;;8.00;7.67;;;;;;;;5020649;28;61885;-74
2022/09/01 11:19:16;;;;;;;;;7.33;5.67;;;;;;;;4986889;28;62035;-74
2022/09/01 11:21:42;;;;;;;;;7.33;6.33;;;;;;;;4995915;28;62287;-74
2022/09/01 11:24:25;;;;;;;;;8.33;5.00;;;;;;;;4991596;28;62002;-75
2022/09/01 11:26:51;;;;;;;;;5.67;5.67;;;;;;;;4996242;28;61779;-75
2022/09/01 11:29:35;;;;;;;;;6.00;5.67;;;;;;;;4987620;28;62261;-75
2022/09/01 11:32:01;;;;;;;;;9.67;5.33;;;;;;;;5002335;28;62110;-75
2022/09/01 11:34:28;;;;;;;;;6.67;5.00;;;;;;;;4990257;28;61900;-75
2022/09/01 11:36:57;;;;;;;;;6.00;6.00;;;;;;;;4999212;28;62995;-75
2022/09/01 11:39:33;;;;;;;;;5.33;5.33;;;;;;;;4990791;28;62051;-75
2022/09/01 11:42:02;;;;;;;;;6.67;5.00;;;;;;;;4980677;28;61940;-74
2022/09/01 11:44:27;;;;;;;;;6.00;4.33;;;;;;;;4986855;28;62638;-75
2022/09/01 11:46:56;;;;;;;;;6.00;4.67;;;;;;;;4964753;28;61937;-75
2022/09/01 11:49:29;;;;;;;;;6.00;5.00;;;;;;;;4985836;28;62476;-76
2022/09/01 11:51:55;;;;;;;;;8.00;7.00;;;;;;;;4991338;28;61943;-77
2022/09/01 11:54:21;;;;;;;;;7.33;5.00;;;;;;;;5014168;28;62976;-75
2022/09/01 11:56:46;;;;;;;;;4.33;4.00;;;;;;;;5029265;28;62854;-76
2022/09/01 11:59:12;;;;;;;;;5.00;4.00;;;;;;;;5012945;28;62154;-76
2022/09/01 12:01:38;;;;;;;;;4.33;4.33;;;;;;;;5015267;28;62070;-76
2022/09/01 12:04:25;;;;;;;;;4.67;4.67;;;;;;;;5013036;28;62920;-75
2022/09/01 12:07:11;;;;;;;;;6.67;5.67;;;;;;;;5012460;28;62146;-75
2022/09/01 12:09:45;;;;;;;;;8.00;3.67;;;;;;;;5012458;28;62481;-78
2022/09/01 12:12:28;;;;;;;;;3.33;3.00;;;;;;;;5042608;28;61908;-78
2022/09/01 12:14:58;;;;;;;;;4.00;4.00;;;;;;;;5011756;28;63433;-75
2022/09/01 12:17:23;;;;;;;;;5.00;5.00;;;;;;;;5012806;28;62008;-75
2022/09/01 12:19:49;;;;;;;;;4.00;4.00;;;;;;;;5051521;28;62353;-75
2022/09/01 12:22:17;;;;;;;;;2.00;2.00;;;;;;;;5018341;28;62471;-75
2022/09/01 12:24:46;;;;;;;;;3.00;2.67;;;;;;;;5010426;28;62347;-75
2022/09/01 12:27:12;;;;;;;;;4.00;4.00;;;;;;;;5013079;28;62551;-75
2022/09/01 12:29:38;;;;;;;;;3.00;3.00;;;;;;;;5010507;28;63055;-75
2022/09/01 12:32:04;;;;;;;;;3.00;3.00;;;;;;;;5014305;28;62264;-76
2022/09/01 12:34:32;;;;;;;;;5.33;4.67;;;;;;;;5011728;28;63733;-78
2022/09/01 12:37:05;;;;;;;;;3.33;2.67;;;;;;;;5013635;28;62050;-74
2022/09/01 12:39:46;;;;;;;;;6.33;4.00;;;;;;;;5012914;28;62079;-74
2022/09/01 12:42:18;;;;;;;;;6.33;4.67;;;;;;;;5012400;28;62100;-74
2022/09/01 12:44:45;;;;;;;;;2.00;2.00;;;;;;;;5012241;28;62733;-74
2022/09/01 12:47:32;;;;;;;;;5.00;3.67;;;;;;;;5013930;28;62019;-74
2022/09/01 12:49:57;;;;;;;;;2.00;2.00;;;;;;;;5026611;28;62104;-74
2022/09/01 12:52:26;;;;;;;;;7.33;4.00;;;;;;;;5031458;28;61758;-74
2022/09/01 12:54:54;;;;;;;;;4.00;3.00;;;;;;;;5029600;28;64991;-74
2022/09/01 12:57:27;;;;;;;;;5.00;3.00;;;;;;;;5019462;28;62175;-74
2022/09/01 13:00:05;;;;;;;;;2.00;2.00;;;;;;;;5032398;28;61919;-74
2022/09/01 13:02:33;;;;;;;;;5.00;3.00;;;;;;;;5041471;28;61705;-74
2022/09/01 13:05:17;;;;;;;;;4.00;3.00;;;;;;;;5042131;28;61862;-74
2022/09/01 13:07:42;;;;;;;;;3.00;3.00;;;;;;;;5042677;28;61785;-74
2022/09/01 13:10:07;;;;;;;;;4.00;3.00;;;;;;;;5042665;28;61827;-74
2022/09/01 13:12:32;;;;;;;;;5.33;4.33;;;;;;;;5039130;28;61960;-74
2022/09/01 13:14:58;;;;;;;;;2.33;2.33;;;;;;;;5014007;28;62374;-74
2022/09/01 13:17:23;;;;;;;;;5.33;5.33;;;;;;;;5013744;28;62202;-74
2022/09/01 13:19:48;;;;;;;;;6.33;5.33;;;;;;;;5013502;28;62430;-74
2022/09/01 13:22:14;;;;;;;;;5.33;4.33;;;;;;;;5012930;28;62623;-74
2022/09/01 13:24:39;;;;;;;;;6.00;4.00;;;;;;;;5012337;28;63235;-74
2022/09/01 13:27:04;;;;;;;;;5.67;4.00;;;;;;;;5014273;28;61965;-74
2022/09/01 13:29:29;;;;;;;;;4.00;2.67;;;;;;;;5007642;28;62017;-74
2022/09/01 13:31:56;;;;;;;;;2.00;2.00;;;;;;;;5013764;28;62017;-74
2022/09/01 13:34:21;;;;;;;;;3.67;3.67;;;;;;;;5012349;28;62009;-74
2022/09/01 13:36:46;;;;;;;;;4.00;4.00;;;;;;;;5014522;28;62048;-74
2022/09/01 13:39:12;;;;;;;;;4.00;4.00;;;;;;;;5016903;28;62688;-73
2022/09/01 13:41:38;;;;;;;;;7.33;3.67;;;;;;;;5017451;28;61847;-74
2022/09/01 13:44:03;;;;;;;;;4.67;4.33;;;;;;;;5012724;28;63459;-76
2022/09/01 13:46:28;;;;;;;;;1.67;1.67;;;;;;;;5010834;28;61902;-74
2022/09/01 13:48:53;;;;;;;;;5.00;4.67;;;;;;;;5013415;28;62047;-76
2022/09/01 13:51:26;;;;;;;;;4.00;4.00;;;;;;;;5011836;28;62232;-73
2022/09/01 13:53:51;;;;;;;;;5.00;5.00;;;;;;;;5014925;28;61974;-76
2022/09/01 13:56:17;;;;;;;;;3.00;3.00;;;;;;;;5018503;28;62044;-74
2022/09/01 13:58:42;;;;;;;;;3.33;3.33;;;;;;;;5019008;28;61842;-74
2022/09/01 14:01:07;;;;;;;;;3.00;3.00;;;;;;;;5019403;28;61855;-74
2022/09/01 14:03:32;;;;;;;;;6.67;3.67;;;;;;;;5018299;28;63487;-74
2022/09/01 14:05:58;;;;;;;;;3.33;3.33;;;;;;;;5019880;28;62049;-73
2022/09/01 14:08:23;;;;;;;;;4.00;3.33;;;;;;;;5019169;28;61775;-74
2022/09/01 14:10:50;;;;;;;;;5.00;3.67;;;;;;;;5019253;28;62197;-73
2022/09/01 14:13:15;;;;;;;;;4.00;4.00;;;;;;;;5019950;28;65187;-74
2022/09/01 14:15:41;;;;;;;;;4.33;4.33;;;;;;;;5019994;28;61830;-76
2022/09/01 14:18:06;;;;;;;;;4.00;3.33;;;;;;;;5020498;28;61753;-76
2022/09/01 14:20:38;;;;;;;;;5.00;4.00;;;;;;;;5021408;28;61782;-76
2022/09/01 14:23:04;;;;;;;;;4.67;3.67;;;;;;;;5020933;28;62676;-76
2022/09/01 14:25:30;;;;;;;;;4.33;3.67;;;;;;;;5021435;28;62381;-76
2022/09/01 14:27:55;;;;;;;;;1.67;1.67;;;;;;;;5021523;28;61909;-76
2022/09/01 14:30:23;;;;;;;;;3.00;3.00;;;;;;;;5021457;28;62259;-76
2022/09/01 14:32:49;;;;;;;;;3.67;3.67;;;;;;;;5020741;28;62890;-76
2022/09/01 14:35:15;;;;;;;;;4.00;3.00;;;;;;;;5018901;28;61793;-77
2022/09/01 14:37:41;;;;;;;;;6.33;5.33;;;;;;;;5017197;28;61746;-76
2022/09/01 14:40:07;;;;;;;;;3.00;3.00;;;;;;;;5020079;28;61921;-77
2022/09/01 14:42:33;;;;;;;;;4.00;3.00;;;;;;;;5018790;28;62896;-77
2022/09/01 14:44:59;;;;;;;;;4.00;4.00;;;;;;;;5018350;28;61819;-76
2022/09/01 14:47:24;;;;;;;;;5.67;4.00;;;;;;;;5018752;28;62382;-76
2022/09/01 14:49:51;;;;;;;;;4.00;4.00;;;;;;;;5020106;28;62076;-76